Time;durP1;ratioP1;P1;durP2;ratioP2;P2;SDS_P1;SDS_P2;PMS_P1;PMS_P2;Temp;Humidity;BMP_temperature;BMP_pressure;BME280_temperature;BME280_humidity;BME280_pressure;Samples;Min_cycle;Max_cycle;Signal;HPM_P1;HPM_P2
2021/12/28 00:01:58;;;;;;;113.38;38.97;;;;;;;7.54;100.00;99444.00;5050557;28;20043;-72
2021/12/28 00:04:24;;;;;;;99.13;36.75;;;;;;;7.50;100.00;99440.31;5050110;28;20047;-72
2021/12/28 00:06:49;;;;;;;89.68;37.25;;;;;;;7.54;100.00;99438.56;5035136;28;20539;-73
2021/12/28 00:09:14;;;;;;;89.88;36.47;;;;;;;7.53;100.00;99433.44;5047731;28;20098;-72
2021/12/28 00:11:40;;;;;;;97.00;37.20;;;;;;;7.62;100.00;99437.78;5044336;28;20267;-72
2021/12/28 00:14:06;;;;;;;97.07;38.45;;;;;;;7.65;100.00;99423.59;5040074;28;20114;-71
2021/12/28 00:17:58;;;;;;;79.90;34.92;;;;;;;7.56;100.00;99428.19;5048889;28;20312;-71
2021/12/28 00:19:17;;;;;;;90.85;35.92;;;;;;;7.59;100.00;99419.44;5046231;28;20124;-72
2021/12/28 00:21:43;;;;;;;89.18;34.50;;;;;;;7.59;100.00;99416.72;5044032;28;20493;-72
2021/12/28 00:24:08;;;;;;;89.45;34.70;;;;;;;7.55;100.00;99415.75;5038940;28;20045;-72
2021/12/28 00:26:34;;;;;;;98.55;36.42;;;;;;;7.46;100.00;99414.94;5048579;28;20044;-72
2021/12/28 00:28:59;;;;;;;89.38;34.58;;;;;;;7.39;100.00;99417.34;5046844;28;20360;-72
2021/12/28 00:31:26;;;;;;;79.93;33.40;;;;;;;7.32;100.00;99419.69;5051022;28;20047;-72
2021/12/28 00:33:53;;;;;;;79.15;32.53;;;;;;;7.22;100.00;99413.47;5053563;28;20119;-72
2021/12/28 00:36:18;;;;;;;89.45;34.58;;;;;;;7.12;100.00;99413.75;5053564;28;20507;-72
2021/12/28 00:38:44;;;;;;;83.32;34.17;;;;;;;7.10;100.00;99416.00;5053787;28;20052;-71
2021/12/28 00:41:10;;;;;;;88.95;32.83;;;;;;;7.01;100.00;99412.44;5052788;28;20113;-71
2021/12/28 00:43:37;;;;;;;85.43;34.53;;;;;;;6.96;100.00;99418.03;5033617;28;20063;-73
2021/12/28 00:46:05;;;;;;;96.70;32.90;;;;;;;6.91;100.00;99423.59;5034133;28;20394;-72
2021/12/28 00:48:31;;;;;;;80.70;31.65;;;;;;;6.80;100.00;99425.78;5030378;28;20067;-72
2021/12/28 00:50:57;;;;;;;83.28;32.92;;;;;;;6.84;100.00;99420.53;5015342;28;20568;-72
2021/12/28 00:53:23;;;;;;;81.82;31.45;;;;;;;6.82;100.00;99420.06;5031500;28;20304;-72
2021/12/28 00:55:48;;;;;;;87.28;31.45;;;;;;;6.78;100.00;99415.25;5033819;28;20049;-72
2021/12/28 00:58:14;;;;;;;72.53;29.25;;;;;;;6.69;100.00;99411.72;5033289;28;20049;-71
2021/12/28 01:00:40;;;;;;;76.32;30.40;;;;;;;6.78;100.00;99414.47;5030541;28;20341;-71
2021/12/28 01:03:08;;;;;;;90.90;34.03;;;;;;;6.67;100.00;99408.53;5032680;28;20079;-72
2021/12/28 01:05:34;;;;;;;84.35;32.83;;;;;;;6.57;100.00;99408.78;5033766;28;20354;-71
2021/12/28 01:08:00;;;;;;;96.68;34.72;;;;;;;6.52;100.00;99411.66;5033244;28;20044;-72
2021/12/28 01:10:30;;;;;;;87.68;33.50;;;;;;;6.44;100.00;99409.69;5028335;28;20091;-71
2021/12/28 01:12:57;;;;;;;101.72;35.67;;;;;;;6.44;100.00;99412.41;5014844;28;20037;-72
2021/12/28 01:15:24;;;;;;;99.93;33.35;;;;;;;6.32;100.00;99404.84;5014249;28;20041;-73
2021/12/28 01:17:50;;;;;;;100.35;34.20;;;;;;;6.32;100.00;99416.47;5015093;28;20455;-72
2021/12/28 01:20:16;;;;;;;100.18;33.38;;;;;;;6.37;100.00;99420.16;5016140;28;20313;-73
2021/12/28 01:22:44;;;;;;;86.78;33.13;;;;;;;6.22;100.00;99414.00;5016725;28;20112;-72
2021/12/28 01:25:10;;;;;;;90.65;33.83;;;;;;;6.24;100.00;99411.81;5016928;28;20145;-71
2021/12/28 01:27:36;;;;;;;117.57;36.53;;;;;;;6.13;100.00;99400.44;5018025;28;20041;-71
2021/12/28 01:30:05;;;;;;;100.93;33.40;;;;;;;6.13;100.00;99400.44;5018621;28;20049;-72
2021/12/28 01:32:31;;;;;;;83.78;31.50;;;;;;;6.15;100.00;99402.84;5019378;28;20045;-70
2021/12/28 01:34:56;;;;;;;100.70;32.55;;;;;;;6.09;100.00;99398.66;5020836;28;20049;-72
2021/12/28 01:37:22;;;;;;;100.50;32.97;;;;;;;6.07;100.00;99400.88;5024150;28;20049;-71
2021/12/28 01:39:47;;;;;;;100.95;32.45;;;;;;;6.04;100.00;99394.16;5027312;28;20495;-72
2021/12/28 01:42:13;;;;;;;76.40;28.85;;;;;;;6.08;100.00;99400.56;5041126;28;20045;-71
2021/12/28 01:44:38;;;;;;;82.45;28.13;;;;;;;6.10;100.00;99401.03;5053085;28;20109;-72
2021/12/28 01:47:04;;;;;;;85.97;28.98;;;;;;;6.11;100.00;99393.75;5052890;28;20033;-71
2021/12/28 01:49:29;;;;;;;78.60;27.67;;;;;;;6.11;100.00;99397.25;5054330;28;20051;-72
2021/12/28 01:51:55;;;;;;;70.80;25.50;;;;;;;6.09;100.00;99394.03;5053456;28;20120;-73
2021/12/28 01:54:21;;;;;;;79.13;26.92;;;;;;;6.10;100.00;99400.25;5052817;28;20600;-71
2021/12/28 01:56:48;;;;;;;71.20;25.88;;;;;;;6.09;100.00;99387.84;5052612;28;20037;-70
2021/12/28 01:59:17;;;;;;;72.30;25.55;;;;;;;6.27;100.00;99384.13;5051709;28;20037;-72
2021/12/28 02:01:43;;;;;;;83.07;26.58;;;;;;;6.23;100.00;99388.56;5050061;28;20128;-72
2021/12/28 02:04:24;;;;;;;69.22;24.73;;;;;;;6.26;100.00;99381.72;5030176;28;20063;-72
2021/12/28 02:06:51;;;;;;;73.28;25.45;;;;;;;6.33;100.00;99377.44;5029985;28;20044;-73
2021/12/28 02:09:17;;;;;;;61.45;23.88;;;;;;;6.26;100.00;99371.69;5030004;28;20049;-71
2021/12/28 02:11:44;;;;;;;65.45;24.00;;;;;;;6.41;100.00;99385.94;5028803;28;20434;-71
2021/12/28 02:14:10;;;;;;;61.17;22.05;;;;;;;6.40;100.00;99376.19;5028106;28;20040;-72
2021/12/28 02:16:38;;;;;;;65.18;22.88;;;;;;;6.44;100.00;99377.19;5028707;28;20424;-71
2021/12/28 02:19:05;;;;;;;79.72;24.23;;;;;;;6.41;100.00;99378.63;5027699;28;20084;-72
2021/12/28 02:21:31;;;;;;;64.05;24.00;;;;;;;6.32;100.00;99375.88;5026422;28;20039;-70
2021/12/28 02:23:58;;;;;;;66.10;23.73;;;;;;;6.42;100.00;99374.78;5025677;28;20479;-71
2021/12/28 02:26:24;;;;;;;68.28;25.25;;;;;;;6.43;100.00;99375.56;5024464;28;20125;-71
2021/12/28 02:28:50;;;;;;;69.30;24.45;;;;;;;6.30;100.00;99371.88;5023774;28;20953;-71
2021/12/28 02:31:15;;;;;;;82.85;26.58;;;;;;;6.34;100.00;99373.66;5021993;28;20344;-71
2021/12/28 02:33:41;;;;;;;65.78;23.80;;;;;;;6.30;100.00;99372.66;5019460;28;20063;-72
2021/12/28 02:36:07;;;;;;;79.13;25.40;;;;;;;6.42;100.00;99374.00;5016887;28;20439;-72
2021/12/28 02:38:33;;;;;;;57.42;22.77;;;;;;;6.48;100.00;99372.75;5017324;28;20045;-72
2021/12/28 02:40:59;;;;;;;63.20;23.17;;;;;;;6.45;100.00;99365.25;5016289;28;20052;-73
2021/12/28 02:43:24;;;;;;;63.10;23.58;;;;;;;6.54;100.00;99358.78;5035764;28;20029;-72
2021/12/28 02:45:54;;;;;;;73.95;25.88;;;;;;;6.56;100.00;99355.72;5034585;28;20611;-71
2021/12/28 02:48:21;;;;;;;68.53;25.27;;;;;;;6.54;100.00;99360.66;5033586;28;20485;-71
2021/12/28 02:50:48;;;;;;;56.90;22.55;;;;;;;6.53;100.00;99359.06;5014916;28;20041;-72
2021/12/28 02:53:16;;;;;;;75.18;24.35;;;;;;;6.49;100.00;99353.50;5016312;28;20042;-72
2021/12/28 02:55:42;;;;;;;59.30;23.35;;;;;;;6.48;100.00;99351.06;5018706;28;20056;-71
2021/12/28 02:58:35;;;;;;;56.45;23.83;;;;;;;6.48;100.00;99351.06;5017815;28;20112;-72
2021/12/28 03:01:09;;;;;;;72.03;25.23;;;;;;;6.58;100.00;99350.81;5012256;28;20455;-72
2021/12/28 03:03:36;;;;;;;59.47;22.55;;;;;;;6.48;100.00;99345.66;5034469;28;20783;-71
2021/12/28 03:06:04;;;;;;;55.92;21.83;;;;;;;6.60;100.00;99348.56;5037805;28;20153;-72
2021/12/28 03:08:31;;;;;;;56.90;20.60;;;;;;;6.49;100.00;99345.38;5036851;28;21092;-72
2021/12/28 03:10:58;;;;;;;60.20;21.55;;;;;;;6.52;100.00;99336.63;5037909;28;20037;-72
2021/12/28 03:13:27;;;;;;;57.95;21.10;;;;;;;6.54;100.00;99339.81;5036106;28;20118;-72
2021/12/28 03:15:53;;;;;;;58.30;21.08;;;;;;;6.52;100.00;99331.19;5038081;28;20045;-71
2021/12/28 03:18:19;;;;;;;48.65;20.45;;;;;;;6.49;100.00;99341.88;5036533;28;20056;-71
2021/12/28 03:20:45;;;;;;;59.90;21.83;;;;;;;6.46;100.00;99328.94;5036501;28;20482;-71
2021/12/28 03:23:14;;;;;;;58.70;20.92;;;;;;;6.38;100.00;99337.84;5037293;28;20049;-71
2021/12/28 03:25:39;;;;;;;50.22;20.13;;;;;;;6.33;100.00;99341.47;5037587;28;20726;-72
2021/12/28 03:28:05;;;;;;;60.15;22.30;;;;;;;6.30;100.00;99342.88;5037575;28;20094;-71
2021/12/28 03:30:31;;;;;;;54.72;19.75;;;;;;;6.20;100.00;99340.47;5037293;28;20044;-71
2021/12/28 03:32:56;;;;;;;57.58;20.67;;;;;;;6.09;100.00;99333.72;5037608;28;20048;-71
2021/12/28 03:35:22;;;;;;;46.38;20.10;;;;;;;6.14;100.00;99325.47;5038724;28;20056;-72
2021/12/28 03:37:47;;;;;;;54.08;21.05;;;;;;;6.13;100.00;99323.84;5038046;28;20049;-72
2021/12/28 03:40:15;;;;;;;60.58;21.38;;;;;;;6.11;100.00;99323.38;5037625;28;20040;-73
2021/12/28 03:42:41;;;;;;;52.17;19.55;;;;;;;6.16;100.00;99323.22;5036290;28;20071;-72
2021/12/28 03:45:09;;;;;;;54.17;19.45;;;;;;;6.13;100.00;99321.94;5036642;28;20110;-70
2021/12/28 03:47:34;;;;;;;63.90;19.98;;;;;;;6.21;100.00;99312.28;5036773;28;20224;-72
2021/12/28 03:50:00;;;;;;;51.65;19.08;;;;;;;6.16;100.00;99300.78;5021464;28;20414;-72
2021/12/28 03:52:26;;;;;;;62.10;19.73;;;;;;;6.13;100.00;99296.78;5016994;28;20155;-71
2021/12/28 03:54:51;;;;;;;62.55;20.95;;;;;;;6.24;100.00;99290.00;5016340;28;20558;-72
2021/12/28 03:57:17;;;;;;;62.65;20.63;;;;;;;6.24;100.00;99295.41;5016033;28;20553;-71
2021/12/28 03:59:43;;;;;;;64.53;21.23;;;;;;;6.26;100.00;99290.50;5016589;28;20041;-72
2021/12/28 04:02:08;;;;;;;58.60;20.40;;;;;;;6.24;100.00;99287.28;5015395;28;20045;-73
2021/12/28 04:04:34;;;;;;;64.68;21.15;;;;;;;6.31;100.00;99293.06;5015261;28;20046;-72
2021/12/28 04:06:59;;;;;;;57.58;21.45;;;;;;;6.47;100.00;99290.72;5015209;28;20056;-72
2021/12/28 04:09:56;;;;;;;52.38;19.80;;;;;;;6.45;100.00;99287.50;5015696;28;20049;-72
2021/12/28 04:12:10;;;;;;;60.40;20.95;;;;;;;6.51;100.00;99286.25;5015657;28;20033;-72
2021/12/28 04:14:35;;;;;;;57.38;20.17;;;;;;;6.60;100.00;99277.34;5020416;28;20037;-71
2021/12/28 04:17:01;;;;;;;57.95;22.08;;;;;;;6.60;100.00;99280.84;5017933;28;20033;-72
2021/12/28 04:19:26;;;;;;;57.10;19.27;;;;;;;6.60;100.00;99278.16;5023434;28;20575;-72
2021/12/28 04:21:52;;;;;;;54.92;21.17;;;;;;;6.69;100.00;99272.75;5035021;28;20075;-72
2021/12/28 04:24:18;;;;;;;62.83;19.45;;;;;;;6.64;100.00;99268.28;5036692;28;20493;-72
2021/12/28 04:26:43;;;;;;;60.63;19.88;;;;;;;6.65;100.00;99263.69;5036393;28;20075;-71
2021/12/28 04:29:08;;;;;;;52.97;20.15;;;;;;;6.77;100.00;99267.34;5036631;28;20401;-71
2021/12/28 04:31:34;;;;;;;47.50;18.33;;;;;;;6.75;100.00;99275.00;5036561;28;20049;-72
2021/12/28 04:34:00;;;;;;;56.83;19.88;;;;;;;6.79;100.00;99267.84;5036075;28;20549;-73
2021/12/28 04:36:25;;;;;;;54.55;18.70;;;;;;;6.77;100.00;99256.50;5035013;28;20041;-72
2021/12/28 04:38:51;;;;;;;60.08;18.42;;;;;;;6.67;100.00;99259.53;5033456;28;20095;-72
2021/12/28 04:41:16;;;;;;;64.70;19.70;;;;;;;6.70;100.00;99266.25;5034849;28;20045;-72
2021/12/28 04:43:43;;;;;;;56.15;17.40;;;;;;;6.71;100.00;99263.19;5035108;28;20033;-71
2021/12/28 04:46:08;;;;;;;58.78;18.50;;;;;;;6.67;100.00;99256.81;5034036;28;20045;-71
2021/12/28 04:48:34;;;;;;;51.88;18.05;;;;;;;6.71;100.00;99257.78;5035761;28;20045;-71
2021/12/28 04:51:00;;;;;;;59.95;18.70;;;;;;;6.77;100.00;99256.50;5035425;28;20045;-72
2021/12/28 04:53:26;;;;;;;50.70;17.38;;;;;;;6.70;100.00;99264.31;5035454;28;20051;-71
2021/12/28 04:55:51;;;;;;;63.92;18.63;;;;;;;6.77;100.00;99263.84;5034532;28;20052;-71
2021/12/28 04:58:18;;;;;;;46.40;16.30;;;;;;;6.89;100.00;99263.22;5034773;28;20119;-72
2021/12/28 05:00:46;;;;;;;52.13;16.17;;;;;;;6.86;100.00;99259.22;5035176;28;20060;-71
2021/12/28 05:03:12;;;;;;;56.78;18.08;;;;;;;6.88;100.00;99251.59;5035738;28;20045;-72
2021/12/28 05:05:43;;;;;;;51.55;15.98;;;;;;;6.95;100.00;99267.38;5035450;28;20045;-73
2021/12/28 05:08:10;;;;;;;42.95;15.50;;;;;;;6.89;100.00;99264.00;5033530;28;20662;-72
2021/12/28 05:10:36;;;;;;;49.20;15.20;;;;;;;7.05;100.00;99260.84;5035240;28;20059;-73
2021/12/28 05:13:02;;;;;;;48.75;15.30;;;;;;;7.03;100.00;99259.25;5034760;28;20037;-72
2021/12/28 05:15:27;;;;;;;46.92;13.38;;;;;;;7.13;100.00;99266.28;5032968;28;20060;-70
2021/12/28 05:17:53;;;;;;;54.83;15.25;;;;;;;7.14;100.00;99269.78;5035152;28;20052;-72
2021/12/28 05:20:18;;;;;;;49.42;14.43;;;;;;;7.25;100.00;99274.56;5034784;28;20044;-72
2021/12/28 05:22:44;;;;;;;53.42;14.75;;;;;;;7.25;100.00;99255.59;5035748;28;20041;-71
2021/12/28 05:25:09;;;;;;;52.42;14.98;;;;;;;7.22;100.00;99250.81;5035369;28;20044;-72
2021/12/28 05:27:36;;;;;;;46.50;13.00;;;;;;;7.25;100.00;99250.16;5035534;28;20473;-74
2021/12/28 05:30:05;;;;;;;51.50;14.02;;;;;;;7.21;100.00;99237.56;5035127;28;20051;-72
2021/12/28 05:32:30;;;;;;;49.38;14.98;;;;;;;7.30;100.00;99237.53;5034732;28;20041;-71
2021/12/28 05:34:56;;;;;;;46.53;13.27;;;;;;;7.27;100.00;99230.84;5034601;28;20049;-73
2021/12/28 05:37:21;;;;;;;43.85;13.05;;;;;;;7.35;100.00;99234.69;5033324;28;20049;-72
2021/12/28 05:39:47;;;;;;;50.40;14.02;;;;;;;7.39;100.00;99235.66;5034808;28;20044;-72
2021/12/28 05:42:12;;;;;;;52.05;12.95;;;;;;;7.31;100.00;99231.03;5024419;28;20038;-72
2021/12/28 05:44:38;;;;;;;52.05;12.90;;;;;;;7.34;100.00;99219.53;5014634;28;20395;-72
2021/12/28 05:47:04;;;;;;;46.63;13.10;;;;;;;7.27;100.00;99214.56;5013602;28;20119;-71
2021/12/28 05:49:29;;;;;;;52.97;13.38;;;;;;;7.30;100.00;99221.28;5024946;28;20044;-71
2021/12/28 05:51:54;;;;;;;47.22;13.25;;;;;;;7.42;100.00;99224.94;5034944;28;20044;-71
2021/12/28 05:54:20;;;;;;;52.88;12.88;;;;;;;7.35;100.00;99221.13;5029934;28;20049;-73
2021/12/28 05:56:46;;;;;;;43.97;13.63;;;;;;;7.32;100.00;99216.34;5013928;28;20033;-72
2021/12/28 05:59:11;;;;;;;47.63;12.02;;;;;;;7.43;100.00;99214.88;5013753;28;20048;-73
2021/12/28 06:01:38;;;;;;;42.33;12.00;;;;;;;7.41;100.00;99217.13;5014121;28;20435;-71
2021/12/28 06:04:04;;;;;;;51.75;12.73;;;;;;;7.44;100.00;99211.03;5021193;28;20075;-72
2021/12/28 06:06:30;;;;;;;47.65;11.05;;;;;;;7.41;100.00;99207.06;5027898;28;20131;-71
2021/12/28 06:08:55;;;;;;;44.35;11.98;;;;;;;7.41;100.00;99203.56;5026017;28;20056;-71
2021/12/28 06:11:21;;;;;;;45.47;11.75;;;;;;;7.40;100.00;99201.97;5042892;28;20029;-71
2021/12/28 06:13:47;;;;;;;51.65;11.70;;;;;;;7.45;100.00;99199.09;5038926;28;20045;-72
2021/12/28 06:16:13;;;;;;;43.97;11.13;;;;;;;7.35;100.00;99191.28;5033684;28;20073;-72
2021/12/28 06:18:38;;;;;;;46.58;11.55;;;;;;;7.36;100.00;99190.16;5049567;28;20041;-71
2021/12/28 06:21:04;;;;;;;34.97;11.00;;;;;;;7.33;100.00;99196.22;5033981;28;20200;-71
2021/12/28 06:23:30;;;;;;;39.08;10.82;;;;;;;7.40;100.00;99201.97;5044838;28;20424;-72
2021/12/28 06:25:56;;;;;;;49.78;11.05;;;;;;;7.31;100.00;99193.06;5038120;28;20051;-71
2021/12/28 06:28:21;;;;;;;40.45;10.57;;;;;;;7.38;100.00;99198.78;5049945;28;20044;-73
2021/12/28 06:30:48;;;;;;;52.55;10.90;;;;;;;7.44;100.00;99186.63;5037324;28;20040;-73
2021/12/28 06:33:13;;;;;;;35.60;11.25;;;;;;;7.46;100.00;99189.84;5044767;28;20347;-72
2021/12/28 06:35:38;;;;;;;45.75;11.02;;;;;;;7.45;100.00;99188.25;5046398;28;20072;-72
2021/12/28 06:38:04;;;;;;;47.50;10.77;;;;;;;7.51;100.00;99192.38;5052035;28;20045;-73
2021/12/28 06:40:29;;;;;;;35.88;8.85;;;;;;;7.49;100.00;99189.97;5051243;28;20409;-72
2021/12/28 06:42:55;;;;;;;52.60;11.68;;;;;;;7.61;100.00;99196.66;5015295;28;20528;-73
2021/12/28 06:45:20;;;;;;;43.85;10.65;;;;;;;7.59;100.00;99193.44;5013301;28;20045;-73
2021/12/28 06:47:46;;;;;;;40.50;9.25;;;;;;;7.45;100.00;99199.09;5013634;28;20045;-71
2021/12/28 06:50:13;;;;;;;42.85;10.43;;;;;;;7.57;100.00;99201.94;5011592;28;20159;-71
2021/12/28 06:52:38;;;;;;;32.58;9.43;;;;;;;7.61;100.00;99202.06;5013622;28;20037;-72
2021/12/28 06:55:05;;;;;;;36.33;8.95;;;;;;;7.55;100.00;99193.31;5014915;28;20063;-72
2021/12/28 06:57:31;;;;;;;41.38;9.48;;;;;;;7.63;100.00;99191.69;5035989;28;20040;-70
2021/12/28 06:59:56;;;;;;;39.53;8.70;;;;;;;7.81;100.00;99187.78;5043914;28;20405;-72
2021/12/28 07:02:22;;;;;;;42.10;9.20;;;;;;;7.70;100.00;99187.34;5035489;28;20059;-74
2021/12/28 07:04:47;;;;;;;38.08;8.57;;;;;;;7.77;100.00;99183.38;5036987;28;20049;-73
2021/12/28 07:07:13;;;;;;;34.72;8.73;;;;;;;7.69;100.00;99179.56;5050273;28;20544;-74
2021/12/28 07:09:39;;;;;;;45.35;9.38;;;;;;;7.70;100.00;99173.78;5029671;28;20059;-72
2021/12/28 07:12:05;;;;;;;49.97;10.05;;;;;;;7.70;100.00;99173.00;5052052;28;20447;-72
2021/12/28 07:14:31;;;;;;;40.58;9.05;;;;;;;7.70;100.00;99171.06;5047699;28;20044;-72
2021/12/28 07:16:57;;;;;;;38.08;8.73;;;;;;;7.77;100.00;99172.50;5063891;28;20037;-72
2021/12/28 07:19:23;;;;;;;40.58;8.38;;;;;;;7.62;100.00;99166.50;5068423;28;20137;-73
2021/12/28 07:21:49;;;;;;;27.67;8.82;;;;;;;7.60;100.00;99162.50;5059916;28;20088;-74
2021/12/28 07:24:14;;;;;;;37.65;10.25;;;;;;;7.49;100.00;99153.91;5064370;28;20075;-71
2021/12/28 07:26:40;;;;;;;44.08;10.63;;;;;;;7.44;100.00;99164.94;5070221;28;20101;-71
2021/12/28 07:29:06;;;;;;;30.75;10.38;;;;;;;7.38;100.00;99166.22;5066862;28;20033;-72
2021/12/28 07:31:32;;;;;;;31.67;10.15;;;;;;;7.42;100.00;99161.78;5055793;28;20096;-71
2021/12/28 07:33:58;;;;;;;46.47;11.60;;;;;;;7.50;100.00;99152.78;5055581;28;20083;-70
2021/12/28 07:36:23;;;;;;;48.42;11.25;;;;;;;7.52;100.00;99145.13;5046192;28;20041;-69
2021/12/28 07:38:48;;;;;;;55.22;13.48;;;;;;;7.46;100.00;99136.38;5065629;28;20051;-72
2021/12/28 07:41:14;;;;;;;42.97;10.70;;;;;;;7.46;100.00;99132.88;5062210;28;20048;-71
2021/12/28 07:43:40;;;;;;;44.53;10.80;;;;;;;7.41;100.00;99141.19;5043697;28;20451;-71
2021/12/28 07:46:05;;;;;;;34.20;11.13;;;;;;;7.53;100.00;99135.06;5067369;28;20048;-70
2021/12/28 07:48:31;;;;;;;34.28;10.50;;;;;;;7.56;100.00;99146.06;5050410;28;20548;-72
2021/12/28 07:50:57;;;;;;;39.08;10.63;;;;;;;7.56;100.00;99146.06;5048977;28;20444;-71
2021/12/28 07:53:22;;;;;;;38.13;11.00;;;;;;;7.65;100.00;99144.13;5068050;28;20464;-72
2021/12/28 07:55:48;;;;;;;37.53;11.90;;;;;;;7.77;100.00;99150.81;5056709;28;20049;-71
2021/12/28 07:58:14;;;;;;;36.65;11.82;;;;;;;7.77;100.00;99148.09;5059166;28;20036;-72
2021/12/28 08:00:39;;;;;;;39.83;11.52;;;;;;;7.77;100.00;99145.38;5046424;28;20041;-71
2021/12/28 08:03:05;;;;;;;34.58;10.65;;;;;;;7.72;100.00;99139.00;5040208;28;20096;-72
2021/12/28 08:05:33;;;;;;;31.00;10.02;;;;;;;7.83;100.00;99144.06;5055936;28;20037;-71
2021/12/28 08:07:58;;;;;;;32.13;10.65;;;;;;;7.93;100.00;99149.09;5041075;28;20036;-71
2021/12/28 08:10:24;;;;;;;38.22;9.25;;;;;;;7.97;100.00;99160.09;5031443;28;20033;-72
2021/12/28 08:12:52;;;;;;;38.38;9.43;;;;;;;8.13;100.00;99153.78;5022878;28;20056;-72
2021/12/28 08:15:18;;;;;;;27.25;9.80;;;;;;;8.11;100.00;99156.03;5052931;28;20596;-73
2021/12/28 08:17:44;;;;;;;36.05;8.85;;;;;;;8.09;100.00;99155.56;5044142;28;20037;-71
2021/12/28 08:20:12;;;;;;;35.60;8.82;;;;;;;8.07;100.00;99160.53;5044600;28;20083;-71
2021/12/28 08:22:38;;;;;;;34.95;9.65;;;;;;;8.14;100.00;99160.81;5053154;28;20394;-71
2021/12/28 08:25:05;;;;;;;33.00;9.05;;;;;;;8.28;100.00;99159.78;5039250;28;20037;-72
2021/12/28 08:27:31;;;;;;;34.03;9.38;;;;;;;8.28;100.00;99154.34;5055770;28;20058;-72
2021/12/28 08:29:56;;;;;;;34.72;9.07;;;;;;;8.33;100.00;99144.09;5055960;28;20915;-71
2021/12/28 08:32:23;;;;;;;24.60;7.05;;;;;;;8.22;100.00;99148.31;5041852;28;20425;-71
2021/12/28 08:34:49;;;;;;;31.13;8.55;;;;;;;8.36;100.00;99139.91;5031872;28;20518;-71
2021/12/28 08:37:14;;;;;;;29.40;8.30;;;;;;;8.46;100.00;99134.09;5055511;28;20045;-71
2021/12/28 08:39:40;;;;;;;30.95;7.57;;;;;;;8.50;100.00;99137.75;5053890;28;20611;-72
2021/12/28 08:42:05;;;;;;;34.15;7.85;;;;;;;8.53;100.00;99133.59;5038116;28;20179;-72
2021/12/28 08:44:31;;;;;;;24.10;6.93;;;;;;;8.59;100.00;99129.53;5019211;28;20039;-72
2021/12/28 08:46:56;;;;;;;30.08;7.85;;;;;;;8.54;100.00;99130.53;5014539;28;20068;-72
2021/12/28 08:49:24;;;;;;;22.10;6.95;;;;;;;8.49;100.00;99122.56;5014495;28;20034;-72
2021/12/28 08:51:49;;;;;;;25.30;6.65;;;;;;;8.57;100.00;99119.00;5014071;28;20072;-71
2021/12/28 08:54:15;;;;;;;26.20;6.63;;;;;;;8.50;100.00;99118.75;5016813;28;20041;-72
2021/12/28 08:56:41;;;;;;;31.25;6.90;;;;;;;8.47;100.00;99124.84;5022981;28;20036;-71
2021/12/28 08:59:06;;;;;;;26.25;7.95;;;;;;;8.58;100.00;99130.66;5013561;28;20471;-71
2021/12/28 09:01:31;;;;;;;22.67;6.72;;;;;;;8.56;100.00;99114.69;5013581;28;20037;-71
2021/12/28 09:03:57;;;;;;;21.90;7.53;;;;;;;8.61;100.00;99114.50;5016746;28;20044;-71
2021/12/28 09:06:23;;;;;;;24.42;7.22;;;;;;;8.68;100.00;99107.75;5015423;28;20053;-71
2021/12/28 09:08:49;;;;;;;25.48;7.15;;;;;;;8.77;100.00;99111.97;5014817;28;20053;-71
2021/12/28 09:11:14;;;;;;;20.85;6.28;;;;;;;8.67;100.00;99106.94;5014003;28;20061;-71
2021/12/28 09:13:40;;;;;;;23.95;6.57;;;;;;;8.74;100.00;99100.97;5015118;28;20073;-71
2021/12/28 09:16:06;;;;;;;29.98;7.72;;;;;;;8.71;100.00;99112.50;5013025;28;20128;-72
2021/12/28 09:18:32;;;;;;;17.73;6.30;;;;;;;8.73;100.00;99110.25;5015278;28;20041;-72
2021/12/28 09:20:57;;;;;;;21.63;6.95;;;;;;;8.80;100.00;99105.06;5020075;28;20044;-71
2021/12/28 09:23:23;;;;;;;19.45;6.18;;;;;;;8.64;100.00;99101.38;5033039;28;20493;-72
2021/12/28 09:25:49;;;;;;;18.83;6.97;;;;;;;8.73;100.00;99096.66;5033325;28;20041;-69
2021/12/28 09:28:15;;;;;;;15.40;6.43;;;;;;;8.79;100.00;99098.06;5031620;28;20457;-71
2021/12/28 09:30:42;;;;;;;24.90;7.38;;;;;;;8.79;100.00;99101.56;5032744;28;20041;-71
2021/12/28 09:33:09;;;;;;;16.77;7.38;;;;;;;8.70;100.00;99100.84;5030412;28;20410;-71
2021/12/28 09:35:35;;;;;;;16.45;6.85;;;;;;;8.69;100.00;99093.00;5021527;28;20427;-71
2021/12/28 09:38:01;;;;;;;15.77;6.43;;;;;;;8.70;100.00;99091.91;5012099;28;20536;-71
2021/12/28 09:40:27;;;;;;;26.80;8.35;;;;;;;8.77;100.00;99086.72;5023386;28;20077;-72
2021/12/28 09:42:52;;;;;;;13.15;5.68;;;;;;;8.73;100.00;99083.88;5021853;28;20131;-73
2021/12/28 09:45:18;;;;;;;15.07;6.90;;;;;;;8.81;100.00;99087.63;5030840;28;20818;-73
2021/12/28 09:47:44;;;;;;;24.67;7.45;;;;;;;8.81;100.00;99079.47;5017417;28;20060;-72
2021/12/28 09:50:14;;;;;;;15.93;7.20;;;;;;;8.89;100.00;99073.16;5019680;28;20176;-72
2021/12/28 09:52:41;;;;;;;14.50;7.65;;;;;;;8.82;100.00;99075.63;5040443;28;20363;-71
2021/12/28 09:55:08;;;;;;;21.38;7.30;;;;;;;8.87;100.00;99072.69;5037901;28;20055;-71
2021/12/28 09:57:33;;;;;;;16.40;7.18;;;;;;;8.87;100.00;99072.69;5036991;28;20040;-73
2021/12/28 09:59:59;;;;;;;12.55;6.85;;;;;;;8.82;100.00;99059.31;5040693;28;20535;-73
2021/12/28 10:02:25;;;;;;;15.95;7.60;;;;;;;8.98;100.00;99057.53;5044069;28;20122;-73
2021/12/28 10:05:04;;;;;;;17.15;7.50;;;;;;;8.89;100.00;99059.56;5023123;28;20564;-70
2021/12/28 10:07:33;;;;;;;12.07;7.70;;;;;;;9.06;100.00;99053.94;5021024;28;20037;-73
2021/12/28 10:09:59;;;;;;;14.40;7.53;;;;;;;8.92;100.00;99053.44;5031259;28;20438;-71
2021/12/28 10:12:40;;;;;;;18.70;8.45;;;;;;;8.96;100.00;99054.38;5038807;28;20143;-72
2021/12/28 10:15:15;;;;;;;14.73;7.55;;;;;;;9.00;100.00;99049.84;5022554;28;20144;-72
2021/12/28 10:17:44;;;;;;;22.25;8.27;;;;;;;9.09;100.00;99041.59;5044005;28;20067;-72
2021/12/28 10:20:31;;;;;;;17.10;9.70;;;;;;;9.05;100.00;99041.47;5040988;28;20033;-71
2021/12/28 10:22:59;;;;;;;16.27;8.82;;;;;;;9.11;100.00;99033.91;5033687;28;20042;-71
2021/12/28 10:25:47;;;;;;;19.05;9.40;;;;;;;9.12;100.00;99032.75;5052673;28;20044;-72
2021/12/28 10:28:22;;;;;;;20.20;9.88;;;;;;;9.09;100.00;99024.50;5035813;28;20041;-71
2021/12/28 10:30:53;;;;;;;14.65;9.30;;;;;;;9.12;100.00;99021.88;5034160;28;20473;-72
2021/12/28 10:33:21;;;;;;;28.23;9.20;;;;;;;9.11;100.00;99017.59;5025157;28;20032;-71
2021/12/28 10:35:56;;;;;;;17.30;8.98;;;;;;;9.20;100.00;99014.75;5039539;28;20053;-71
2021/12/28 10:38:24;;;;;;;20.90;9.32;;;;;;;9.28;100.00;99008.44;5032208;28;20048;-72
2021/12/28 10:40:52;;;;;;;18.15;9.77;;;;;;;9.26;100.00;98999.81;5030002;28;20052;-71
2021/12/28 10:43:20;;;;;;;14.30;8.43;;;;;;;9.15;100.00;98995.94;5028516;28;20464;-72
2021/12/28 10:46:01;;;;;;;16.98;8.60;;;;;;;9.21;100.00;99000.03;5018517;28;20481;-71
2021/12/28 10:48:27;;;;;;;12.45;8.23;;;;;;;9.25;100.00;98992.75;5012974;28;20605;-71
2021/12/28 10:51:07;;;;;;;15.10;8.35;;;;;;;9.34;100.00;98985.31;5009692;28;20495;-71
2021/12/28 10:53:43;;;;;;;18.27;9.30;;;;;;;9.37;100.00;98987.34;5020557;28;20850;-70
2021/12/28 10:56:10;;;;;;;13.57;8.05;;;;;;;9.36;100.00;98984.94;5030945;28;20745;-72
2021/12/28 10:58:45;;;;;;;15.98;7.93;;;;;;;9.31;100.00;98983.28;5043474;28;20106;-71
2021/12/28 11:01:14;;;;;;;13.20;8.25;;;;;;;9.33;100.00;98972.81;5035425;28;20438;-71
2021/12/28 11:03:45;;;;;;;16.27;7.63;;;;;;;9.41;100.00;98969.19;5027152;28;20073;-70
2021/12/28 11:06:28;;;;;;;14.38;9.50;;;;;;;9.42;100.00;98967.25;5003435;28;20033;-72
2021/12/28 11:09:00;;;;;;;14.77;8.23;;;;;;;9.43;100.00;98958.78;5017683;28;20056;-71
2021/12/28 11:11:26;;;;;;;14.07;8.13;;;;;;;9.32;100.00;98946.75;5016601;28;20575;-71
2021/12/28 11:13:58;;;;;;;14.10;8.23;;;;;;;9.37;100.00;98951.19;5022910;28;20045;-70
2021/12/28 11:16:26;;;;;;;14.55;8.93;;;;;;;9.47;100.00;98948.00;5044880;28;20119;-72
2021/12/28 11:18:56;;;;;;;13.68;8.15;;;;;;;9.40;100.00;98947.78;5016270;28;20443;-71